sensor_id;sensor_type;location;lat;lon;timestamp;pressure;altitude;pressure_sealevel;temperature;humidity
61014;BME280;46899;47.542;19.082;2023-04-25T00:02:22;99408.16;;;11.16;100.00
61014;BME280;46899;47.542;19.082;2023-04-25T00:05:26;99402.97;;;11.16;100.00
61014;BME280;46899;47.542;19.082;2023-04-25T00:08:29;99405.22;;;11.22;100.00
61014;BME280;46899;47.542;19.082;2023-04-25T00:11:32;99404.94;;;11.28;100.00
61014;BME280;46899;47.542;19.082;2023-04-25T00:14:35;99407.53;;;11.28;100.00
61014;BME280;46899;47.542;19.082;2023-04-25T00:17:37;99403.97;;;11.29;100.00
61014;BME280;46899;47.542;19.082;2023-04-25T00:20:43;99402.22;;;11.29;100.00
61014;BME280;46899;47.542;19.082;2023-04-25T00:23:48;99403.97;;;11.29;100.00
61014;BME280;46899;47.542;19.082;2023-04-25T00:26:51;99390.97;;;11.29;100.00
61014;BME280;46899;47.542;19.082;2023-04-25T00:29:54;99393.75;;;11.26;100.00
61014;BME280;46899;47.542;19.082;2023-04-25T00:32:56;99404.16;;;11.26;100.00
61014;BME280;46899;47.542;19.082;2023-04-25T00:35:59;99394.06;;;11.20;100.00
61014;BME280;46899;47.542;19.082;2023-04-25T00:39:01;99385.16;;;11.24;100.00
61014;BME280;46899;47.542;19.082;2023-04-25T00:42:05;99384.75;;;11.16;100.00
61014;BME280;46899;47.542;19.082;2023-04-25T00:45:08;99382.66;;;11.22;100.00
61014;BME280;46899;47.542;19.082;2023-04-25T00:48:14;99375.06;;;11.18;100.00
61014;BME280;46899;47.542;19.082;2023-04-25T00:51:19;99377.78;;;11.16;100.00
61014;BME280;46899;47.542;19.082;2023-04-25T00:54:21;99365.56;;;11.17;100.00
61014;BME280;46899;47.542;19.082;2023-04-25T00:57:24;99369.78;;;11.19;100.00
61014;BME280;46899;47.542;19.082;2023-04-25T01:00:28;99376.94;;;11.16;100.00
61014;BME280;46899;47.542;19.082;2023-04-25T01:03:32;99371.88;;;11.13;100.00
61014;BME280;46899;47.542;19.082;2023-04-25T01:06:35;99366.50;;;11.16;100.00
61014;BME280;46899;47.542;19.082;2023-04-25T01:09:38;99364.75;;;11.16;100.00
61014;BME280;46899;47.542;19.082;2023-04-25T01:12:40;99364.81;;;11.15;100.00
61014;BME280;46899;47.542;19.082;2023-04-25T01:15:43;99349.19;;;11.15;100.00
61014;BME280;46899;47.542;19.082;2023-04-25T01:18:46;99352.13;;;11.09;100.00
61014;BME280;46899;47.542;19.082;2023-04-25T01:21:49;99355.50;;;11.11;100.00
61014;BME280;46899;47.542;19.082;2023-04-25T01:24:52;99329.63;;;11.08;100.00
61014;BME280;46899;47.542;19.082;2023-04-25T01:27:55;99350.28;;;11.11;100.00
61014;BME280;46899;47.542;19.082;2023-04-25T01:30:58;99347.84;;;11.08;100.00
61014;BME280;46899;47.542;19.082;2023-04-25T01:34:01;99348.94;;;11.04;100.00
61014;BME280;46899;47.542;19.082;2023-04-25T01:37:04;99342.78;;;11.05;100.00
61014;BME280;46899;47.542;19.082;2023-04-25T01:40:07;99344.38;;;11.07;100.00
61014;BME280;46899;47.542;19.082;2023-04-25T01:43:10;99352.63;;;10.99;100.00
61014;BME280;46899;47.542;19.082;2023-04-25T01:46:14;99337.00;;;10.99;100.00
61014;BME280;46899;47.542;19.082;2023-04-25T01:49:18;99340.88;;;10.92;100.00
61014;BME280;46899;47.542;19.082;2023-04-25T01:52:21;99337.41;;;10.92;100.00
61014;BME280;46899;47.542;19.082;2023-04-25T01:55:25;99354.78;;;10.91;100.00
61014;BME280;46899;47.542;19.082;2023-04-25T01:58:30;99341.00;;;10.89;100.00
61014;BME280;46899;47.542;19.082;2023-04-25T02:01:34;99349.56;;;10.91;100.00
61014;BME280;46899;47.542;19.082;2023-04-25T02:04:39;99350.47;;;10.90;100.00
61014;BME280;46899;47.542;19.082;2023-04-25T02:07:42;99341.78;;;10.91;100.00
61014;BME280;46899;47.542;19.082;2023-04-25T02:10:46;99345.47;;;10.87;100.00
61014;BME280;46899;47.542;19.082;2023-04-25T02:13:49;99347.47;;;10.82;100.00
61014;BME280;46899;47.542;19.082;2023-04-25T02:16:52;99343.00;;;10.84;100.00
61014;BME280;46899;47.542;19.082;2023-04-25T02:19:55;99346.47;;;10.85;100.00
61014;BME280;46899;47.542;19.082;2023-04-25T02:22:58;99344.53;;;10.88;100.00
61014;BME280;46899;47.542;19.082;2023-04-25T02:26:02;99362.59;;;10.91;100.00
61014;BME280;46899;47.542;19.082;2023-04-25T02:29:05;99356.47;;;10.92;100.00
61014;BME280;46899;47.542;19.082;2023-04-25T02:32:08;99359.06;;;10.92;100.00
61014;BME280;46899;47.542;19.082;2023-04-25T02:35:10;99355.88;;;10.87;100.00
61014;BME280;46899;47.542;19.082;2023-04-25T02:38:13;99347.72;;;10.93;100.00
61014;BME280;46899;47.542;19.082;2023-04-25T02:41:15;99344.63;;;11.02;100.00
61014;BME280;46899;47.542;19.082;2023-04-25T02:44:18;99343.72;;;11.04;100.00
61014;BME280;46899;47.542;19.082;2023-04-25T02:47:20;99345.09;;;11.11;100.00
61014;BME280;46899;47.542;19.082;2023-04-25T02:50:24;99340.72;;;11.11;100.00
61014;BME280;46899;47.542;19.082;2023-04-25T02:53:26;99340.38;;;11.17;100.00
61014;BME280;46899;47.542;19.082;2023-04-25T02:56:29;99345.34;;;11.22;100.00
61014;BME280;46899;47.542;19.082;2023-04-25T02:59:32;99343.84;;;11.18;100.00
61014;BME280;46899;47.542;19.082;2023-04-25T03:02:35;99337.13;;;11.14;100.00
61014;BME280;46899;47.542;19.082;2023-04-25T03:05:38;99337.28;;;11.11;100.00
61014;BME280;46899;47.542;19.082;2023-04-25T03:08:41;99342.62;;;11.08;100.00
61014;BME280;46899;47.542;19.082;2023-04-25T03:11:44;99337.06;;;10.98;100.00
61014;BME280;46899;47.542;19.082;2023-04-25T03:14:47;99354.44;;;10.97;100.00
61014;BME280;46899;47.542;19.082;2023-04-25T03:17:49;99343.47;;;10.92;100.00
61014;BME280;46899;47.542;19.082;2023-04-25T03:20:53;99332.44;;;10.87;100.00
61014;BME280;46899;47.542;19.082;2023-04-25T03:23:55;99330.00;;;10.84;100.00
61014;BME280;46899;47.542;19.082;2023-04-25T03:26:58;99338.91;;;10.80;100.00
61014;BME280;46899;47.542;19.082;2023-04-25T03:30:00;99338.53;;;10.71;100.00
61014;BME280;46899;47.542;19.082;2023-04-25T03:33:04;99345.34;;;10.73;100.00
61014;BME280;46899;47.542;19.082;2023-04-25T03:36:06;99338.44;;;10.72;100.00
61014;BME280;46899;47.542;19.082;2023-04-25T03:39:09;99347.94;;;10.73;100.00
61014;BME280;46899;47.542;19.082;2023-04-25T03:42:12;99332.81;;;10.64;100.00
61014;BME280;46899;47.542;19.082;2023-04-25T03:45:15;99333.03;;;10.60;100.00
61014;BME280;46899;47.542;19.082;2023-04-25T03:48:17;99337.56;;;10.56;100.00
61014;BME280;46899;47.542;19.082;2023-04-25T03:51:20;99337.69;;;10.53;100.00
61014;BME280;46899;47.542;19.082;2023-04-25T03:54:22;99341.38;;;10.49;100.00
61014;BME280;46899;47.542;19.082;2023-04-25T03:57:25;99335.66;;;10.43;100.00
61014;BME280;46899;47.542;19.082;2023-04-25T04:00:30;99343.75;;;10.37;100.00
61014;BME280;46899;47.542;19.082;2023-04-25T04:03:33;99345.59;;;10.35;100.00
61014;BME280;46899;47.542;19.082;2023-04-25T04:06:37;99347.50;;;10.31;100.00
61014;BME280;46899;47.542;19.082;2023-04-25T04:09:42;99345.91;;;10.28;100.00
61014;BME280;46899;47.542;19.082;2023-04-25T04:12:44;99351.16;;;10.27;100.00
61014;BME280;46899;47.542;19.082;2023-04-25T04:15:47;99355.59;;;10.25;100.00
61014;BME280;46899;47.542;19.082;2023-04-25T04:18:50;99358.44;;;10.20;100.00
61014;BME280;46899;47.542;19.082;2023-04-25T04:21:52;99356.91;;;10.16;100.00
61014;BME280;46899;47.542;19.082;2023-04-25T04:24:55;99359.59;;;10.15;100.00
61014;BME280;46899;47.542;19.082;2023-04-25T04:28:02;99368.22;;;10.15;100.00
61014;BME280;46899;47.542;19.082;2023-04-25T04:31:06;99359.59;;;10.15;100.00
61014;BME280;46899;47.542;19.082;2023-04-25T04:34:11;99363.00;;;10.15;100.00
61014;BME280;46899;47.542;19.082;2023-04-25T04:37:13;99364.94;;;10.12;100.00
61014;BME280;46899;47.542;19.082;2023-04-25T04:40:17;99365.78;;;10.12;100.00
61014;BME280;46899;47.542;19.082;2023-04-25T04:43:20;99363.22;;;10.11;100.00
61014;BME280;46899;47.542;19.082;2023-04-25T04:46:23;99360.69;;;10.09;100.00
61014;BME280;46899;47.542;19.082;2023-04-25T04:49:27;99367.44;;;10.13;100.00
61014;BME280;46899;47.542;19.082;2023-04-25T04:52:30;99364.78;;;10.15;100.00
61014;BME280;46899;47.542;19.082;2023-04-25T04:55:33;99358.81;;;10.13;100.00
61014;BME280;46899;47.542;19.082;2023-04-25T04:58:36;99350.28;;;10.09;100.00
61014;BME280;46899;47.542;19.082;2023-04-25T05:01:39;99370.91;;;10.14;100.00
61014;BME280;46899;47.542;19.082;2023-04-25T05:04:44;99369.47;;;10.07;100.00
61014;BME280;46899;47.542;19.082;2023-04-25T05:07:47;99379.25;;;10.02;100.00
61014;BME280;46899;47.542;19.082;2023-04-25T05:10:52;99375.34;;;10.12;100.00
61014;BME280;46899;47.542;19.082;2023-04-25T05:13:54;99368.22;;;10.15;100.00
61014;BME280;46899;47.542;19.082;2023-04-25T05:16:58;99367.87;;;10.04;100.00
61014;BME280;46899;47.542;19.082;2023-04-25T05:20:04;99372.22;;;9.87;100.00
61014;BME280;46899;47.542;19.082;2023-04-25T05:23:11;99386.59;;;9.75;100.00
61014;BME280;46899;47.542;19.082;2023-04-25T05:26:13;99379.53;;;9.60;100.00
61014;BME280;46899;47.542;19.082;2023-04-25T05:29:17;99379.88;;;9.52;100.00
61014;BME280;46899;47.542;19.082;2023-04-25T05:32:20;99380.00;;;9.49;100.00
61014;BME280;46899;47.542;19.082;2023-04-25T05:35:23;99376.78;;;9.44;100.00
61014;BME280;46899;47.542;19.082;2023-04-25T05:38:26;99373.72;;;9.36;100.00
61014;BME280;46899;47.542;19.082;2023-04-25T05:41:30;99376.94;;;9.23;100.00
61014;BME280;46899;47.542;19.082;2023-04-25T05:44:32;99384.34;;;9.12;100.00
61014;BME280;46899;47.542;19.082;2023-04-25T05:47:35;99388.41;;;8.99;100.00
61014;BME280;46899;47.542;19.082;2023-04-25T05:50:38;99381.06;;;8.88;100.00
61014;BME280;46899;47.542;19.082;2023-04-25T05:53:44;99377.91;;;8.81;100.00
61014;BME280;46899;47.542;19.082;2023-04-25T05:56:47;99377.63;;;8.69;100.00
61014;BME280;46899;47.542;19.082;2023-04-25T05:59:50;99387.19;;;8.67;100.00
61014;BME280;46899;47.542;19.082;2023-04-25T06:02:53;99386.28;;;8.68;100.00
61014;BME280;46899;47.542;19.082;2023-04-25T06:05:56;99392.53;;;8.64;100.00
61014;BME280;46899;47.542;19.082;2023-04-25T06:09:00;99393.53;;;8.60;100.00
61014;BME280;46899;47.542;19.082;2023-04-25T06:12:06;99390.94;;;8.60;100.00
61014;BME280;46899;47.542;19.082;2023-04-25T06:15:09;99395.03;;;8.65;100.00
61014;BME280;46899;47.542;19.082;2023-04-25T06:18:29;99399.53;;;8.62;100.00
61014;BME280;46899;47.542;19.082;2023-04-25T06:21:32;99401.78;;;8.69;100.00
61014;BME280;46899;47.542;19.082;2023-04-25T06:24:35;99393.78;;;8.74;100.00
61014;BME280;46899;47.542;19.082;2023-04-25T06:27:38;99395.41;;;8.76;100.00
61014;BME280;46899;47.542;19.082;2023-04-25T06:30:43;99393.44;;;8.83;100.00
61014;BME280;46899;47.542;19.082;2023-04-25T06:33:46;99404.94;;;8.96;100.00
61014;BME280;46899;47.542;19.082;2023-04-25T06:36:51;99397.53;;;9.07;100.00
61014;BME280;46899;47.542;19.082;2023-04-25T06:39:53;99402.91;;;9.23;100.00
61014;BME280;46899;47.542;19.082;2023-04-25T06:42:56;99410.19;;;9.33;100.00
61014;BME280;46899;47.542;19.082;2023-04-25T06:46:00;99402.47;;;9.50;100.00
61014;BME280;46899;47.542;19.082;2023-04-25T06:49:03;99400.22;;;9.61;100.00
61014;BME280;46899;47.542;19.082;2023-04-25T06:52:07;99405.13;;;9.86;100.00
61014;BME280;46899;47.542;19.082;2023-04-25T06:55:09;99407.22;;;9.97;100.00
61014;BME280;46899;47.542;19.082;2023-04-25T06:58:13;99405.72;;;10.10;100.00
61014;BME280;46899;47.542;19.082;2023-04-25T07:01:16;99403.03;;;10.30;100.00
61014;BME280;46899;47.542;19.082;2023-04-25T07:04:19;99408.09;;;10.50;100.00
61014;BME280;46899;47.542;19.082;2023-04-25T07:07:23;99403.72;;;10.68;100.00
61014;BME280;46899;47.542;19.082;2023-04-25T07:10:26;99409.44;;;10.74;100.00
61014;BME280;46899;47.542;19.082;2023-04-25T07:13:29;99410.94;;;11.13;100.00
61014;BME280;46899;47.542;19.082;2023-04-25T07:16:32;99412.13;;;11.23;100.00
61014;BME280;46899;47.542;19.082;2023-04-25T07:19:35;99405.84;;;11.42;100.00
61014;BME280;46899;47.542;19.082;2023-04-25T07:22:40;99404.28;;;11.55;100.00
61014;BME280;46899;47.542;19.082;2023-04-25T07:25:43;99409.28;;;11.91;100.00
61014;BME280;46899;47.542;19.082;2023-04-25T07:28:47;99410.06;;;12.23;100.00
61014;BME280;46899;47.542;19.082;2023-04-25T07:31:53;99409.34;;;12.94;100.00
61014;BME280;46899;47.542;19.082;2023-04-25T07:34:56;99410.03;;;13.26;100.00
61014;BME280;46899;47.542;19.082;2023-04-25T07:37:59;99409.06;;;12.99;100.00
61014;BME280;46899;47.542;19.082;2023-04-25T07:41:02;99411.00;;;13.11;100.00
61014;BME280;46899;47.542;19.082;2023-04-25T07:44:05;99411.72;;;13.13;100.00
61014;BME280;46899;47.542;19.082;2023-04-25T07:47:08;99414.87;;;13.04;100.00
61014;BME280;46899;47.542;19.082;2023-04-25T07:50:11;99422.56;;;13.21;100.00
61014;BME280;46899;47.542;19.082;2023-04-25T07:53:14;99424.31;;;13.07;100.00
61014;BME280;46899;47.542;19.082;2023-04-25T07:56:17;99418.25;;;13.20;100.00
61014;BME280;46899;47.542;19.082;2023-04-25T07:59:20;99419.19;;;13.33;100.00
61014;BME280;46899;47.542;19.082;2023-04-25T08:02:24;99429.75;;;14.01;95.68
61014;BME280;46899;47.542;19.082;2023-04-25T08:05:29;99413.63;;;14.60;97.39
61014;BME280;46899;47.542;19.082;2023-04-25T08:08:33;99421.25;;;14.90;91.56
61014;BME280;46899;47.542;19.082;2023-04-25T08:11:37;99419.78;;;15.24;83.77
61014;BME280;46899;47.542;19.082;2023-04-25T08:14:39;99420.47;;;15.76;83.44
61014;BME280;46899;47.542;19.082;2023-04-25T08:17:43;99426.28;;;15.18;83.03
61014;BME280;46899;47.542;19.082;2023-04-25T08:20:46;99432.34;;;15.44;83.93
61014;BME280;46899;47.542;19.082;2023-04-25T08:23:49;99419.47;;;15.66;83.93
61014;BME280;46899;47.542;19.082;2023-04-25T08:26:52;99419.34;;;15.67;79.90
61014;BME280;46899;47.542;19.082;2023-04-25T08:29:57;99415.63;;;15.83;81.12
61014;BME280;46899;47.542;19.082;2023-04-25T08:33:00;99427.09;;;15.44;79.37
61014;BME280;46899;47.542;19.082;2023-04-25T08:36:04;99419.56;;;15.01;82.78
61014;BME280;46899;47.542;19.082;2023-04-25T08:39:08;99425.75;;;15.13;82.09
61014;BME280;46899;47.542;19.082;2023-04-25T08:42:12;99430.69;;;15.18;83.21
61014;BME280;46899;47.542;19.082;2023-04-25T08:45:14;99435.50;;;14.86;83.59
61014;BME280;46899;47.542;19.082;2023-04-25T08:48:18;99441.88;;;14.94;81.85
61014;BME280;46899;47.542;19.082;2023-04-25T08:51:23;99437.87;;;14.23;85.49
61014;BME280;46899;47.542;19.082;2023-04-25T08:54:27;99434.97;;;14.01;86.36
61014;BME280;46899;47.542;19.082;2023-04-25T08:57:38;99437.03;;;13.96;86.73
61014;BME280;46899;47.542;19.082;2023-04-25T09:00:43;99446.03;;;13.92;89.34
61014;BME280;46899;47.542;19.082;2023-04-25T09:03:47;99443.03;;;13.84;87.51
61014;BME280;46899;47.542;19.082;2023-04-25T09:06:52;99443.63;;;13.75;87.19
61014;BME280;46899;47.542;19.082;2023-04-25T09:09:54;99442.88;;;13.87;93.07
61014;BME280;46899;47.542;19.082;2023-04-25T09:13:23;99446.81;;;13.65;88.40
61014;BME280;46899;47.542;19.082;2023-04-25T09:16:25;99443.44;;;13.78;89.47
61014;BME280;46899;47.542;19.082;2023-04-25T09:19:32;99445.72;;;14.37;87.05
61014;BME280;46899;47.542;19.082;2023-04-25T09:22:45;99446.19;;;14.95;86.44
61014;BME280;46899;47.542;19.082;2023-04-25T09:25:49;99450.91;;;15.41;77.43
61014;BME280;46899;47.542;19.082;2023-04-25T09:29:05;99440.81;;;14.84;79.64
61014;BME280;46899;47.542;19.082;2023-04-25T09:32:10;99441.16;;;14.92;76.90
61014;BME280;46899;47.542;19.082;2023-04-25T09:35:23;99436.56;;;15.46;79.37
61014;BME280;46899;47.542;19.082;2023-04-25T09:38:27;99446.28;;;15.82;77.41
61014;BME280;46899;47.542;19.082;2023-04-25T09:41:31;99439.13;;;15.84;80.12
61014;BME280;46899;47.542;19.082;2023-04-25T09:44:35;99433.62;;;16.71;75.56
61014;BME280;46899;47.542;19.082;2023-04-25T09:47:38;99438.34;;;16.55;76.08
61014;BME280;46899;47.542;19.082;2023-04-25T09:50:41;99445.91;;;16.70;73.77
61014;BME280;46899;47.542;19.082;2023-04-25T09:53:46;99431.91;;;16.35;72.28
61014;BME280;46899;47.542;19.082;2023-04-25T09:56:53;99431.78;;;15.89;71.20
61014;BME280;46899;47.542;19.082;2023-04-25T09:59:56;99443.66;;;15.82;68.45
61014;BME280;46899;47.542;19.082;2023-04-25T10:03:02;99445.16;;;15.97;67.96
61014;BME280;46899;47.542;19.082;2023-04-25T10:06:14;99449.63;;;15.84;66.63
61014;BME280;46899;47.542;19.082;2023-04-25T10:09:20;99443.19;;;15.88;68.87
61014;BME280;46899;47.542;19.082;2023-04-25T10:12:22;99441.09;;;15.93;67.11
61014;BME280;46899;47.542;19.082;2023-04-25T10:15:25;99439.91;;;15.48;68.45
61014;BME280;46899;47.542;19.082;2023-04-25T10:18:28;99451.72;;;15.92;67.16
61014;BME280;46899;47.542;19.082;2023-04-25T10:21:31;99447.47;;;16.25;66.99
61014;BME280;46899;47.542;19.082;2023-04-25T10:24:37;99447.81;;;16.21;64.69
61014;BME280;46899;47.542;19.082;2023-04-25T10:27:40;99456.53;;;15.85;66.66
61014;BME280;46899;47.542;19.082;2023-04-25T10:31:06;99449.75;;;15.57;71.42
61014;BME280;46899;47.542;19.082;2023-04-25T10:34:06;99434.16;;;15.56;68.36
61014;BME280;46899;47.542;19.082;2023-04-25T10:37:09;99439.78;;;15.62;66.69
61014;BME280;46899;47.542;19.082;2023-04-25T10:40:15;99440.12;;;15.45;66.86
61014;BME280;46899;47.542;19.082;2023-04-25T10:46:41;99434.59;;;15.86;63.45
61014;BME280;46899;47.542;19.082;2023-04-25T10:49:46;99439.88;;;16.10;65.96
61014;BME280;46899;47.542;19.082;2023-04-25T10:52:52;99445.16;;;16.33;66.10
61014;BME280;46899;47.542;19.082;2023-04-25T10:55:55;99445.37;;;16.30;62.01
61014;BME280;46899;47.542;19.082;2023-04-25T10:59:05;99442.47;;;16.70;64.11
61014;BME280;46899;47.542;19.082;2023-04-25T11:02:11;99445.34;;;16.78;59.21
61014;BME280;46899;47.542;19.082;2023-04-25T11:05:23;99452.72;;;16.62;59.77
61014;BME280;46899;47.542;19.082;2023-04-25T11:08:33;99463.56;;;17.03;61.08
61014;BME280;46899;47.542;19.082;2023-04-25T11:11:42;99458.84;;;17.19;59.24
61014;BME280;46899;47.542;19.082;2023-04-25T11:14:45;99469.69;;;17.03;57.32
61014;BME280;46899;47.542;19.082;2023-04-25T11:17:48;99465.75;;;17.09;58.69
61014;BME280;46899;47.542;19.082;2023-04-25T11:20:51;99472.66;;;16.99;55.35
61014;BME280;46899;47.542;19.082;2023-04-25T11:23:54;99463.78;;;16.89;56.58
61014;BME280;46899;47.542;19.082;2023-04-25T11:26:58;99474.28;;;17.35;56.99
61014;BME280;46899;47.542;19.082;2023-04-25T11:30:11;99475.31;;;17.78;53.10
61014;BME280;46899;47.542;19.082;2023-04-25T11:33:14;99474.03;;;17.27;55.89
61014;BME280;46899;47.542;19.082;2023-04-25T11:36:16;99479.84;;;16.73;55.40
61014;BME280;46899;47.542;19.082;2023-04-25T11:39:19;99483.66;;;17.04;55.66
61014;BME280;46899;47.542;19.082;2023-04-25T11:42:22;99483.59;;;17.39;53.02
61014;BME280;46899;47.542;19.082;2023-04-25T11:45:24;99482.72;;;17.05;54.50
61014;BME280;46899;47.542;19.082;2023-04-25T11:48:27;99470.88;;;16.65;53.31
61014;BME280;46899;47.542;19.082;2023-04-25T11:51:37;99480.16;;;16.58;56.40
61014;BME280;46899;47.542;19.082;2023-04-25T11:54:39;99484.34;;;16.60;54.51
61014;BME280;46899;47.542;19.082;2023-04-25T11:57:43;99491.72;;;16.55;53.67
61014;BME280;46899;47.542;19.082;2023-04-25T12:00:46;99500.50;;;16.30;53.68
61014;BME280;46899;47.542;19.082;2023-04-25T12:03:52;99498.22;;;15.90;52.99
61014;BME280;46899;47.542;19.082;2023-04-25T12:06:55;99515.84;;;15.75;54.29
61014;BME280;46899;47.542;19.082;2023-04-25T12:09:58;99497.13;;;15.92;54.73
61014;BME280;46899;47.542;19.082;2023-04-25T12:13:00;99510.72;;;16.22;54.13
61014;BME280;46899;47.542;19.082;2023-04-25T12:16:19;99510.25;;;16.41;52.43
61014;BME280;46899;47.542;19.082;2023-04-25T12:19:22;99508.66;;;16.38;54.24
61014;BME280;46899;47.542;19.082;2023-04-25T12:22:24;99504.91;;;16.30;57.59
61014;BME280;46899;47.542;19.082;2023-04-25T12:28:35;99501.28;;;17.26;55.57
61014;BME280;46899;47.542;19.082;2023-04-25T12:31:38;99494.19;;;17.72;52.19
61014;BME280;46899;47.542;19.082;2023-04-25T12:34:41;99487.34;;;18.14;51.27
61014;BME280;46899;47.542;19.082;2023-04-25T12:37:43;99478.78;;;18.55;49.75
61014;BME280;46899;47.542;19.082;2023-04-25T12:41:04;99489.00;;;18.26;49.58
61014;BME280;46899;47.542;19.082;2023-04-25T12:44:07;99483.97;;;18.34;48.52
61014;BME280;46899;47.542;19.082;2023-04-25T12:47:10;99465.69;;;18.10;46.35
61014;BME280;46899;47.542;19.082;2023-04-25T12:50:13;99470.97;;;17.88;46.88
61014;BME280;46899;47.542;19.082;2023-04-25T12:53:16;99472.38;;;17.37;50.14
61014;BME280;46899;47.542;19.082;2023-04-25T12:56:19;99464.06;;;17.54;46.80
61014;BME280;46899;47.542;19.082;2023-04-25T12:59:25;99468.00;;;17.59;45.99
61014;BME280;46899;47.542;19.082;2023-04-25T13:02:28;99467.87;;;17.61;47.85
61014;BME280;46899;47.542;19.082;2023-04-25T13:05:31;99464.41;;;17.60;47.38
61014;BME280;46899;47.542;19.082;2023-04-25T13:08:34;99464.16;;;17.52;46.80
61014;BME280;46899;47.542;19.082;2023-04-25T13:11:37;99466.87;;;17.40;45.38
61014;BME280;46899;47.542;19.082;2023-04-25T13:14:39;99457.78;;;17.44;47.20
61014;BME280;46899;47.542;19.082;2023-04-25T13:17:42;99455.69;;;17.71;46.76
61014;BME280;46899;47.542;19.082;2023-04-25T13:20:45;99451.63;;;17.56;45.54
61014;BME280;46899;47.542;19.082;2023-04-25T13:23:48;99461.00;;;17.25;44.05
61014;BME280;46899;47.542;19.082;2023-04-25T13:26:51;99457.84;;;16.98;44.42
61014;BME280;46899;47.542;19.082;2023-04-25T13:29:53;99456.59;;;16.80;46.26
61014;BME280;46899;47.542;19.082;2023-04-25T13:32:57;99453.94;;;16.69;45.21
61014;BME280;46899;47.542;19.082;2023-04-25T13:36:05;99443.47;;;16.32;45.71
61014;BME280;46899;47.542;19.082;2023-04-25T13:39:11;99442.88;;;16.29;45.65
61014;BME280;46899;47.542;19.082;2023-04-25T13:42:14;99445.56;;;16.27;43.62
61014;BME280;46899;47.542;19.082;2023-04-25T13:45:18;99450.50;;;16.08;44.13
61014;BME280;46899;47.542;19.082;2023-04-25T13:48:21;99458.56;;;16.18;43.65
61014;BME280;46899;47.542;19.082;2023-04-25T13:51:24;99449.12;;;16.15;43.67
61014;BME280;46899;47.542;19.082;2023-04-25T13:54:28;99445.59;;;16.04;43.31
61014;BME280;46899;47.542;19.082;2023-04-25T13:57:31;99449.31;;;16.12;42.53
61014;BME280;46899;47.542;19.082;2023-04-25T14:00:37;99446.72;;;16.36;43.68
61014;BME280;46899;47.542;19.082;2023-04-25T14:03:44;99442.91;;;16.16;42.21
61014;BME280;46899;47.542;19.082;2023-04-25T14:06:47;99447.56;;;16.00;43.19
61014;BME280;46899;47.542;19.082;2023-04-25T14:09:50;99443.34;;;16.10;43.72
61014;BME280;46899;47.542;19.082;2023-04-25T14:12:55;99441.97;;;16.41;45.02
61014;BME280;46899;47.542;19.082;2023-04-25T14:15:58;99452.09;;;16.34;44.41
61014;BME280;46899;47.542;19.082;2023-04-25T14:19:01;99441.81;;;16.31;42.68
61014;BME280;46899;47.542;19.082;2023-04-25T14:22:04;99437.66;;;16.40;44.27
61014;BME280;46899;47.542;19.082;2023-04-25T14:25:08;99445.19;;;16.44;44.32
61014;BME280;46899;47.542;19.082;2023-04-25T14:28:11;99445.50;;;16.53;42.61
61014;BME280;46899;47.542;19.082;2023-04-25T14:31:13;99441.28;;;16.26;45.41
61014;BME280;46899;47.542;19.082;2023-04-25T14:34:16;99457.88;;;16.27;44.50
61014;BME280;46899;47.542;19.082;2023-04-25T14:37:19;99442.00;;;16.28;42.94
61014;BME280;46899;47.542;19.082;2023-04-25T14:40:22;99440.41;;;16.38;43.19
61014;BME280;46899;47.542;19.082;2023-04-25T14:43:25;99438.66;;;16.26;43.94
61014;BME280;46899;47.542;19.082;2023-04-25T14:46:28;99440.84;;;16.32;44.80
61014;BME280;46899;47.542;19.082;2023-04-25T14:49:31;99446.00;;;16.34;44.62
61014;BME280;46899;47.542;19.082;2023-04-25T14:52:34;99445.00;;;16.11;43.72
61014;BME280;46899;47.542;19.082;2023-04-25T14:55:37;99436.25;;;16.00;43.61
61014;BME280;46899;47.542;19.082;2023-04-25T14:58:39;99438.75;;;15.52;43.61
61014;BME280;46899;47.542;19.082;2023-04-25T15:01:42;99444.56;;;15.45;44.90
61014;BME280;46899;47.542;19.082;2023-04-25T15:04:45;99440.66;;;15.25;45.21
61014;BME280;46899;47.542;19.082;2023-04-25T15:07:48;99444.50;;;14.94;45.55
61014;BME280;46899;47.542;19.082;2023-04-25T15:10:50;99449.94;;;14.91;45.01
61014;BME280;46899;47.542;19.082;2023-04-25T15:13:53;99448.91;;;14.81;45.43
61014;BME280;46899;47.542;19.082;2023-04-25T15:16:56;99453.06;;;14.84;45.28
61014;BME280;46899;47.542;19.082;2023-04-25T15:19:58;99451.81;;;14.89;45.88
61014;BME280;46899;47.542;19.082;2023-04-25T15:23:02;99453.28;;;14.93;47.80
61014;BME280;46899;47.542;19.082;2023-04-25T15:26:05;99453.28;;;14.81;46.29
61014;BME280;46899;47.542;19.082;2023-04-25T15:29:08;99441.84;;;14.82;44.92
61014;BME280;46899;47.542;19.082;2023-04-25T15:32:11;99452.13;;;14.85;45.74
61014;BME280;46899;47.542;19.082;2023-04-25T15:35:13;99449.22;;;15.02;45.70
61014;BME280;46899;47.542;19.082;2023-04-25T15:38:16;99453.09;;;15.22;45.01
61014;BME280;46899;47.542;19.082;2023-04-25T15:41:19;99451.22;;;15.36;45.41
61014;BME280;46899;47.542;19.082;2023-04-25T15:44:23;99456.38;;;15.38;44.84
61014;BME280;46899;47.542;19.082;2023-04-25T15:47:26;99453.09;;;15.22;45.23
61014;BME280;46899;47.542;19.082;2023-04-25T15:50:28;99444.72;;;15.29;45.58
61014;BME280;46899;47.542;19.082;2023-04-25T15:53:31;99454.81;;;15.35;46.59
61014;BME280;46899;47.542;19.082;2023-04-25T15:56:33;99449.22;;;15.27;48.42
61014;BME280;46899;47.542;19.082;2023-04-25T15:59:36;99462.09;;;14.92;51.11
61014;BME280;46899;47.542;19.082;2023-04-25T16:02:38;99456.53;;;14.45;55.32